Cove Spring, Texas
Current Conditions -  °F | °C
As of 12:15 AM on Monday 22 Dec 2014 (Local Time) from KJSO Reporting Station
Overcast Overcast  
Wind Chill: 51°   Ceiling: 600
Heat Index: 51°   Visibility: 7mi
Dew Point: 49°   Wind: 8mph
Humidity: 92%   Direction: 180°S
Pressure: 29.85"   Gusts: NA
Location:  31.9649°N, 95.3036°W
Report Text: KJSO 220615Z AUTO 18007KT 7SM OVC006 10/09 A2985 RMK AO2 T01050093
Loading
Personal Weather Stations






























Interactive Weather Map New forecast layout! Learn more

10-Day Weather Forecast

Advertisements
Track Severe Weather on mobile